createdAt,value
2022-09-14T00:01:45.128Z,4.20
2022-09-14T00:04:15.914Z,3.15
2022-09-14T00:06:44.763Z,3.97
2022-09-14T00:09:18.471Z,3.10
2022-09-14T00:11:46.868Z,4.13
2022-09-14T00:14:15.588Z,3.20
2022-09-14T00:16:44.637Z,4.88
2022-09-14T00:19:19.745Z,3.85
2022-09-14T00:21:52.051Z,6.03
2022-09-14T00:24:22.549Z,3.17
2022-09-14T00:26:51.027Z,3.63
2022-09-14T00:29:19.716Z,3.67
2022-09-14T00:31:48.113Z,3.55
2022-09-14T00:34:18.349Z,3.70
2022-09-14T00:36:48.391Z,3.70
2022-09-14T00:39:18.794Z,3.30
2022-09-14T00:41:50.308Z,3.60
2022-09-14T00:45:00.761Z,2.83
2022-09-14T00:47:30.679Z,3.53
2022-09-14T00:50:01.392Z,3.13
2022-09-14T00:52:34.631Z,2.92
2022-09-14T00:55:07.219Z,3.67
2022-09-14T00:57:39.596Z,3.10
2022-09-14T01:00:11.424Z,3.67
2022-09-14T01:02:40.733Z,3.40
2022-09-14T01:05:11.852Z,3.33
2022-09-14T01:08:02.475Z,3.80
2022-09-14T01:10:44.842Z,5.00
2022-09-14T01:13:26.786Z,4.30
2022-09-14T01:16:04.393Z,2.90
2022-09-14T01:18:38.268Z,4.22
2022-09-14T01:21:11.387Z,3.42
2022-09-14T01:23:48.909Z,5.10
2022-09-14T01:26:49.646Z,4.60
2022-09-14T01:29:22.434Z,3.55
2022-09-14T01:31:57.140Z,2.67
2022-09-14T01:34:32.882Z,3.83
2022-09-14T01:37:06.103Z,3.63
2022-09-14T01:39:37.386Z,3.70
2022-09-14T01:42:07.251Z,4.63
2022-09-14T01:44:40.527Z,4.18
2022-09-14T01:47:13.450Z,3.92
2022-09-14T01:49:47.078Z,4.72
2022-09-14T01:52:20.989Z,4.43
2022-09-14T01:54:53.760Z,5.47
2022-09-14T01:57:27.364Z,3.88
2022-09-14T02:00:02.852Z,4.68
2022-09-14T02:02:38.008Z,4.72
2022-09-14T02:05:10.584Z,5.85
2022-09-14T02:07:40.036Z,5.68
2022-09-14T02:10:13.930Z,5.38
2022-09-14T02:12:44.057Z,4.55
2022-09-14T02:15:16.093Z,4.93
2022-09-14T02:17:45.024Z,5.90
2022-09-14T02:20:20.254Z,5.47
2022-09-14T02:22:48.785Z,7.03
2022-09-14T02:25:17.268Z,6.22
2022-09-14T02:27:47.542Z,5.32
2022-09-14T02:30:18.326Z,6.07
2022-09-14T02:32:56.597Z,6.28
2022-09-14T02:35:32.210Z,6.28
2022-09-14T02:38:11.006Z,4.68
2022-09-14T02:40:43.085Z,5.28
2022-09-14T02:43:22.559Z,5.47
2022-09-14T02:46:02.463Z,5.93
2022-09-14T02:48:40.048Z,6.57
2022-09-14T02:51:18.264Z,5.40
2022-09-14T02:53:52.369Z,6.88
2022-09-14T02:56:22.222Z,6.22
2022-09-14T02:58:50.556Z,5.03
2022-09-14T03:01:23.947Z,7.55
2022-09-14T03:03:52.475Z,9.80
2022-09-14T03:06:21.239Z,7.38
2022-09-14T03:08:50.652Z,8.27
2022-09-14T03:11:19.102Z,6.35
2022-09-14T03:13:47.759Z,7.20
2022-09-14T03:16:17.886Z,6.93
2022-09-14T03:18:47.766Z,10.10
2022-09-14T03:21:18.262Z,8.88
2022-09-14T03:23:49.023Z,7.88
2022-09-14T03:26:19.316Z,6.45
2022-09-14T03:28:52.017Z,8.60
2022-09-14T03:31:20.766Z,9.30
2022-09-14T03:33:55.102Z,8.57
2022-09-14T03:36:24.091Z,7.35
2022-09-14T03:38:53.791Z,9.73
2022-09-14T03:41:23.828Z,10.00
2022-09-14T03:43:52.572Z,9.60
2022-09-14T03:46:22.852Z,8.38
2022-09-14T03:48:53.036Z,9.23
2022-09-14T03:51:21.410Z,10.57
2022-09-14T03:53:50.201Z,10.13
2022-09-14T03:56:21.203Z,11.27
2022-09-14T03:58:50.401Z,11.68
2022-09-14T04:01:20.377Z,10.23
2022-09-14T04:03:49.327Z,11.25
2022-09-14T04:06:20.135Z,10.48
2022-09-14T04:08:48.741Z,13.02
2022-09-14T04:11:19.286Z,10.57
2022-09-14T04:13:48.457Z,11.95
2022-09-14T04:16:18.448Z,12.55
2022-09-14T04:18:47.030Z,11.18
2022-09-14T04:21:17.111Z,12.20
2022-09-14T04:26:36.165Z,9.95
2022-09-14T04:29:05.084Z,12.52
2022-09-14T04:31:34.220Z,10.90
2022-09-14T04:34:08.065Z,12.35
2022-09-14T04:36:36.491Z,11.93
2022-09-14T04:39:07.136Z,13.75
2022-09-14T04:41:35.573Z,12.63
2022-09-14T04:44:04.013Z,11.63
2022-09-14T04:46:35.192Z,11.65
2022-09-14T04:49:04.161Z,15.10
2022-09-14T04:51:34.104Z,12.20
2022-09-14T04:54:04.041Z,13.23
2022-09-14T04:56:35.905Z,13.00
2022-09-14T04:59:05.843Z,12.63
2022-09-14T05:01:37.024Z,21.15
2022-09-14T05:04:06.487Z,14.18
2022-09-14T05:06:37.840Z,12.38
2022-09-14T05:09:08.549Z,12.45
2022-09-14T05:11:39.453Z,14.68
2022-09-14T05:14:07.983Z,13.40
2022-09-14T05:16:38.163Z,12.55
2022-09-14T05:19:08.741Z,13.68
2022-09-14T05:21:38.498Z,13.07
2022-09-14T05:24:12.113Z,12.35
2022-09-14T05:26:42.679Z,13.75
2022-09-14T05:29:14.373Z,14.55
2022-09-14T05:31:43.479Z,17.02
2022-09-14T05:34:12.750Z,13.23
2022-09-14T05:36:41.981Z,10.15
2022-09-14T05:39:11.695Z,11.70
2022-09-14T05:41:41.851Z,12.68
2022-09-14T05:44:10.612Z,12.50
2022-09-14T05:46:39.073Z,13.18
2022-09-14T05:49:07.727Z,13.18
2022-09-14T05:51:36.282Z,11.02
2022-09-14T05:54:09.528Z,12.82
2022-09-14T05:56:37.914Z,13.13
2022-09-14T05:59:07.757Z,12.52
2022-09-14T06:01:36.174Z,13.80
2022-09-14T06:04:05.035Z,11.98
2022-09-14T06:06:34.527Z,20.23
2022-09-14T06:09:04.133Z,11.68
2022-09-14T06:11:36.347Z,11.50
2022-09-14T06:14:05.491Z,11.82
2022-09-14T06:16:36.109Z,11.25
2022-09-14T06:19:05.156Z,11.90
2022-09-14T06:21:35.813Z,11.45
2022-09-14T06:24:05.032Z,9.80
2022-09-14T06:26:33.625Z,10.63
2022-09-14T06:29:02.019Z,9.45
2022-09-14T06:31:30.449Z,9.93
2022-09-14T06:34:00.618Z,9.65
2022-09-14T06:36:29.984Z,10.63
2022-09-14T06:39:00.916Z,10.52
2022-09-14T06:41:30.780Z,8.43
2022-09-14T06:44:01.853Z,7.97
2022-09-14T06:46:32.794Z,8.98
2022-09-14T06:49:04.928Z,7.10
2022-09-14T06:51:36.486Z,9.50
2022-09-14T06:54:06.228Z,8.48
2022-09-14T06:56:36.416Z,8.43
2022-09-14T06:59:05.709Z,7.60
2022-09-14T07:01:34.557Z,9.68
2022-09-14T07:04:05.428Z,9.63
2022-09-14T07:06:40.728Z,9.48
2022-09-14T07:09:09.369Z,12.32
2022-09-14T07:11:38.547Z,11.93
2022-09-14T07:14:07.786Z,14.57
2022-09-14T07:16:37.718Z,11.70
2022-09-14T07:19:09.445Z,13.98
2022-09-14T07:21:38.496Z,13.27
2022-09-14T07:24:07.316Z,14.82
2022-09-14T07:26:40.630Z,18.77
2022-09-14T07:29:12.210Z,14.27
2022-09-14T07:31:43.174Z,14.52
2022-09-14T07:34:13.840Z,16.27
2022-09-14T07:36:43.185Z,16.50
2022-09-14T07:39:13.491Z,15.73
2022-09-14T07:41:43.602Z,14.63
2022-09-14T07:44:15.836Z,13.88
2022-09-14T07:46:45.861Z,17.77
2022-09-14T07:49:17.218Z,17.45
2022-09-14T07:51:45.993Z,16.23
2022-09-14T07:54:16.471Z,15.05
2022-09-14T07:56:45.490Z,15.57
2022-09-14T08:02:04.541Z,16.60
2022-09-14T08:04:35.354Z,15.27
2022-09-14T08:07:03.806Z,14.82
2022-09-14T08:09:32.340Z,15.32
2022-09-14T08:12:00.666Z,14.45
2022-09-14T08:14:29.043Z,14.27
2022-09-14T08:16:57.602Z,14.65
2022-09-14T08:19:26.530Z,12.65
2022-09-14T08:21:56.406Z,12.77
2022-09-14T08:24:24.702Z,13.13
2022-09-14T08:26:54.013Z,14.48
2022-09-14T08:29:22.326Z,13.93
2022-09-14T08:31:52.180Z,15.18
2022-09-14T08:34:21.389Z,14.23
2022-09-14T08:36:50.245Z,12.90
2022-09-14T08:39:20.460Z,13.55
2022-09-14T08:42:00.259Z,13.48
2022-09-14T08:44:31.720Z,12.68
2022-09-14T08:47:03.001Z,13.40
2022-09-14T08:49:48.042Z,13.95
2022-09-14T08:52:24.299Z,12.88
2022-09-14T08:54:56.940Z,10.43
2022-09-14T08:57:33.063Z,10.15
2022-09-14T09:00:09.612Z,11.27
2022-09-14T09:03:13.419Z,11.05
2022-09-14T09:05:45.609Z,11.13
2022-09-14T09:08:20.935Z,15.15
2022-09-14T09:10:53.602Z,12.05
2022-09-14T09:13:26.966Z,12.95
2022-09-14T09:15:58.621Z,12.15
2022-09-14T09:18:38.407Z,11.98
2022-09-14T09:21:11.883Z,12.15
2022-09-14T09:23:41.364Z,13.38
2022-09-14T09:26:17.808Z,13.57
2022-09-14T09:28:49.673Z,11.18
2022-09-14T09:31:20.097Z,11.23
2022-09-14T09:34:18.235Z,12.18
2022-09-14T09:36:49.903Z,9.60
2022-09-14T09:39:18.834Z,10.95
2022-09-14T09:41:54.145Z,13.00
2022-09-14T09:44:22.550Z,9.82
2022-09-14T09:46:53.276Z,11.93
2022-09-14T09:49:24.442Z,11.00
2022-09-14T09:51:54.105Z,12.52
2022-09-14T09:54:32.053Z,9.77
2022-09-14T09:57:04.001Z,10.48
2022-09-14T09:59:36.490Z,11.73
2022-09-14T10:02:28.087Z,10.57
2022-09-14T10:05:02.782Z,12.20
2022-09-14T10:07:36.267Z,12.27
2022-09-14T10:10:09.018Z,9.77
2022-09-14T10:12:58.367Z,12.80
2022-09-14T10:15:30.557Z,12.48
2022-09-14T10:18:08.681Z,10.90
2022-09-14T10:20:38.772Z,13.13
2022-09-14T10:23:24.164Z,11.90
2022-09-14T10:25:54.376Z,10.98
2022-09-14T10:28:28.540Z,12.20
2022-09-14T10:31:02.714Z,11.10
2022-09-14T10:33:31.472Z,10.45
2022-09-14T10:36:10.248Z,11.73
2022-09-14T10:38:43.004Z,12.00
2022-09-14T10:41:22.658Z,12.95
2022-09-14T10:44:22.747Z,10.35
2022-09-14T10:47:04.938Z,11.13
2022-09-14T10:49:50.170Z,8.95
2022-09-14T10:52:27.585Z,10.13
2022-09-14T10:55:21.092Z,9.40
2022-09-14T10:57:56.372Z,8.95
2022-09-14T11:00:26.892Z,9.82
2022-09-14T11:03:46.143Z,10.35
2022-09-14T11:06:34.019Z,8.50
2022-09-14T11:11:45.392Z,8.95
2022-09-14T11:14:31.302Z,7.47
2022-09-14T11:17:15.114Z,10.68
2022-09-14T11:19:56.057Z,7.95
2022-09-14T11:22:34.177Z,7.45
2022-09-14T11:25:07.519Z,8.95
2022-09-14T11:27:41.083Z,7.32
2022-09-14T11:30:15.907Z,9.20
2022-09-14T11:32:50.165Z,9.65
2022-09-14T11:35:23.264Z,9.18
2022-09-14T11:37:57.036Z,8.10
2022-09-14T11:40:30.718Z,11.73
2022-09-14T11:43:05.189Z,7.90
2022-09-14T11:45:41.450Z,9.13
2022-09-14T11:48:41.921Z,6.88
2022-09-14T11:51:13.676Z,7.47
2022-09-14T11:53:43.024Z,7.57
2022-09-14T11:56:26.873Z,7.53
2022-09-14T11:58:57.849Z,8.07
2022-09-14T12:01:35.740Z,14.80
2022-09-14T12:04:20.008Z,7.03
2022-09-14T12:06:56.182Z,8.88
2022-09-14T12:09:51.582Z,8.13
2022-09-14T12:12:33.640Z,7.70
2022-09-14T12:15:05.030Z,7.43
2022-09-14T12:17:40.349Z,7.07
2022-09-14T12:20:45.702Z,8.73
2022-09-14T12:23:23.777Z,8.05
2022-09-14T12:26:36.728Z,8.38
2022-09-14T12:29:37.483Z,8.38
2022-09-14T12:32:26.157Z,9.10
2022-09-14T12:35:31.774Z,7.07
2022-09-14T12:38:01.985Z,7.45
2022-09-14T12:40:37.510Z,10.52
2022-09-14T12:43:48.969Z,8.35
2022-09-14T12:46:41.044Z,8.38
2022-09-14T12:49:31.503Z,9.23
2022-09-14T12:52:11.300Z,10.18
2022-09-14T12:54:57.453Z,7.50
2022-09-14T12:57:35.538Z,8.75
2022-09-14T13:00:13.095Z,8.38
2022-09-14T13:03:02.593Z,7.57
2022-09-14T13:05:33.943Z,8.95
2022-09-14T13:08:09.392Z,8.15
2022-09-14T13:10:46.761Z,6.97
2022-09-14T13:13:18.924Z,8.43
2022-09-14T13:15:54.188Z,6.78
2022-09-14T13:18:32.361Z,9.57
2022-09-14T13:21:02.983Z,7.13
2022-09-14T13:23:34.107Z,6.45
2022-09-14T13:26:11.062Z,8.32
2022-09-14T13:28:40.583Z,9.10
2022-09-14T13:31:15.285Z,7.93
2022-09-14T15:24:31.191Z,9.95
2022-09-14T15:27:00.074Z,11.00
2022-09-14T15:29:28.573Z,7.07
2022-09-14T15:31:57.449Z,9.57
2022-09-14T15:34:26.016Z,9.32
2022-09-14T15:36:55.666Z,10.57
2022-09-14T15:39:26.376Z,10.80
2022-09-14T15:41:56.960Z,10.98
2022-09-14T15:44:25.465Z,11.55
2022-09-14T15:46:53.958Z,10.25
2022-09-14T15:49:23.727Z,14.25
2022-09-14T15:51:56.393Z,12.32
2022-09-14T15:54:27.556Z,10.13
2022-09-14T15:57:00.193Z,9.35
2022-09-14T15:59:29.280Z,10.70
2022-09-14T16:01:58.148Z,8.40
2022-09-14T16:04:27.689Z,8.65
2022-09-14T16:06:56.120Z,10.93
2022-09-14T16:09:24.520Z,10.73
2022-09-14T16:11:53.007Z,10.30
2022-09-14T16:14:22.993Z,10.68
2022-09-14T16:16:51.377Z,9.82
2022-09-14T16:19:20.051Z,10.15
2022-09-14T16:21:53.435Z,13.23
2022-09-14T16:24:23.959Z,8.48
2022-09-14T16:26:52.753Z,12.27
2022-09-14T16:29:24.421Z,12.23
2022-09-14T16:31:55.304Z,11.55
2022-09-14T16:34:29.472Z,13.05
2022-09-14T16:36:58.915Z,11.73
2022-09-14T16:39:29.514Z,10.23
2022-09-14T16:42:00.064Z,13.68
2022-09-14T16:44:30.634Z,10.57
2022-09-14T16:46:59.648Z,14.07
2022-09-14T16:49:28.682Z,11.65
2022-09-14T16:51:57.886Z,14.95
2022-09-14T16:54:26.835Z,10.57
2022-09-14T16:56:57.278Z,12.73
2022-09-14T16:59:26.037Z,11.80
2022-09-14T17:01:56.102Z,12.57
2022-09-14T17:04:25.792Z,14.85
2022-09-14T17:06:56.239Z,12.02
2022-09-14T17:09:27.459Z,12.50
2022-09-14T17:11:57.251Z,11.18
2022-09-14T17:14:28.711Z,11.32
2022-09-14T17:16:59.161Z,9.20
2022-09-14T17:19:28.160Z,8.80
2022-09-14T17:21:56.696Z,12.15
2022-09-14T17:24:26.096Z,15.88
2022-09-14T17:26:54.482Z,12.00
2022-09-14T17:29:23.010Z,14.27
2022-09-14T17:31:55.838Z,11.45
2022-09-14T17:34:26.056Z,11.43
2022-09-14T17:36:54.643Z,10.57
2022-09-14T17:39:23.053Z,11.85
2022-09-14T17:41:51.531Z,12.25
2022-09-14T17:44:20.123Z,10.75
2022-09-14T17:46:52.981Z,12.18
2022-09-14T17:49:23.123Z,9.38
2022-09-14T17:51:53.510Z,12.38
2022-09-14T17:54:21.979Z,13.82
2022-09-14T17:56:50.445Z,12.32
2022-09-14T17:59:21.168Z,13.75
2022-09-14T18:01:50.018Z,12.98
2022-09-14T18:04:18.757Z,13.32
2022-09-14T18:06:49.037Z,12.02
2022-09-14T18:09:20.778Z,12.23
2022-09-14T18:11:50.742Z,11.70
2022-09-14T18:14:19.803Z,10.65
2022-09-14T18:16:48.387Z,14.85
2022-09-14T18:19:17.556Z,12.93
2022-09-14T18:21:49.073Z,13.93
2022-09-14T18:24:22.624Z,14.75
2022-09-14T18:26:51.208Z,13.43
2022-09-14T18:29:23.226Z,13.68
2022-09-14T18:31:52.065Z,14.95
2022-09-14T18:34:21.280Z,15.52
2022-09-14T18:36:51.635Z,14.20
2022-09-14T18:39:22.851Z,14.15
2022-09-14T18:41:53.832Z,13.68
2022-09-14T18:44:22.755Z,13.88
2022-09-14T18:46:51.958Z,14.07
2022-09-14T18:49:21.704Z,11.57
2022-09-14T18:51:50.326Z,16.20
2022-09-14T18:54:18.723Z,10.80
2022-09-14T18:56:48.626Z,10.70
2022-09-14T18:59:17.272Z,9.65
2022-09-14T19:01:45.940Z,11.13
2022-09-14T19:04:15.956Z,10.57
2022-09-14T19:06:44.720Z,10.85
2022-09-14T19:09:13.354Z,11.73
2022-09-14T19:11:42.237Z,10.15
2022-09-14T19:14:13.973Z,10.88
2022-09-14T19:16:43.162Z,13.82
2022-09-14T19:19:14.619Z,11.15
2022-09-14T19:21:43.163Z,12.63
2022-09-14T19:24:13.518Z,11.98
2022-09-14T19:26:45.559Z,11.80
2022-09-14T19:29:17.159Z,13.13
2022-09-14T19:31:45.947Z,12.38
2022-09-14T19:34:14.444Z,12.00
2022-09-14T19:36:42.860Z,14.82
2022-09-14T19:39:11.323Z,11.85
2022-09-14T19:41:40.113Z,11.65
2022-09-14T19:44:09.356Z,15.77
2022-09-14T19:46:39.866Z,15.73
2022-09-14T19:49:08.784Z,14.70
2022-09-14T19:51:37.284Z,13.32
2022-09-14T19:54:05.915Z,10.20
2022-09-14T19:56:34.477Z,13.40
2022-09-14T19:59:04.351Z,11.32
2022-09-14T20:01:33.761Z,12.50
2022-09-14T20:04:04.613Z,12.00
2022-09-14T20:06:34.653Z,12.27
2022-09-14T20:09:04.862Z,12.57
2022-09-14T20:11:35.726Z,9.35
2022-09-14T20:14:06.705Z,10.63
2022-09-14T20:16:37.267Z,10.77
2022-09-14T20:19:09.712Z,12.02
2022-09-14T20:21:38.478Z,11.18
2022-09-14T20:24:17.483Z,11.57
2022-09-14T20:26:46.789Z,12.45
2022-09-14T20:29:15.954Z,12.73
2022-09-14T20:31:44.761Z,13.48
2022-09-14T20:34:16.389Z,13.27
2022-09-14T20:36:45.144Z,12.98
2022-09-14T20:39:13.583Z,13.20
2022-09-14T20:41:42.365Z,15.30
2022-09-14T20:44:11.005Z,14.20
2022-09-14T20:46:40.942Z,17.98
2022-09-14T20:49:12.761Z,16.48
2022-09-14T20:51:43.445Z,14.98
2022-09-14T20:54:14.308Z,23.15
2022-09-14T20:56:43.591Z,19.63
2022-09-14T20:59:14.028Z,19.70
2022-09-14T21:01:44.157Z,17.67
2022-09-14T21:04:14.654Z,17.13
2022-09-14T21:06:46.697Z,19.95
2022-09-14T21:09:16.563Z,15.90
2022-09-14T21:11:46.339Z,19.77
2022-09-14T21:14:15.912Z,14.52
2022-09-14T21:16:46.844Z,15.57
2022-09-14T21:19:18.095Z,20.70
2022-09-14T21:21:49.011Z,19.08
2022-09-14T21:24:18.803Z,17.92
2022-09-14T21:26:47.312Z,21.45
2022-09-14T21:29:17.594Z,17.10
2022-09-14T21:31:45.964Z,20.38
2022-09-14T21:34:14.450Z,20.55
2022-09-14T21:36:44.917Z,19.65
2022-09-14T21:39:16.615Z,18.27
2022-09-14T21:41:46.445Z,18.58
2022-09-14T21:44:15.338Z,16.40
2022-09-14T21:46:44.644Z,19.10
2022-09-14T21:49:15.712Z,18.48
2022-09-14T21:51:45.090Z,16.58
2022-09-14T21:54:15.470Z,14.98
2022-09-14T21:56:46.745Z,15.98
2022-09-14T21:59:17.226Z,16.27
2022-09-14T22:01:46.251Z,15.50
2022-09-14T22:04:17.517Z,14.93
2022-09-14T22:06:46.354Z,14.43
2022-09-14T22:09:18.202Z,12.27
2022-09-14T22:11:47.321Z,10.65
2022-09-14T22:14:22.421Z,13.77
2022-09-14T22:16:51.002Z,13.10
2022-09-14T22:19:21.448Z,14.55
2022-09-14T22:21:50.202Z,13.88
2022-09-14T22:24:22.890Z,15.57
2022-09-14T22:26:51.538Z,11.15
2022-09-14T22:29:20.238Z,12.27
2022-09-14T22:31:49.169Z,12.50
2022-09-14T22:34:18.432Z,15.65
2022-09-14T22:36:46.848Z,11.70
2022-09-14T22:39:15.595Z,14.80
2022-09-14T22:41:45.354Z,14.63
2022-09-14T22:44:14.315Z,11.02
2022-09-14T22:46:43.323Z,13.75
2022-09-14T22:49:11.796Z,13.10
2022-09-14T22:51:40.491Z,11.65
2022-09-14T22:54:08.927Z,10.85
2022-09-14T22:56:39.355Z,11.85
2022-09-14T22:59:10.755Z,12.98
2022-09-14T23:01:41.663Z,13.40
2022-09-14T23:04:12.401Z,16.92
2022-09-14T23:06:42.555Z,15.65
2022-09-14T23:09:13.261Z,14.85
2022-09-14T23:11:42.342Z,14.95
2022-09-14T23:14:12.136Z,12.60
2022-09-14T23:16:40.763Z,11.55
2022-09-14T23:19:09.435Z,10.00
2022-09-14T23:21:37.882Z,12.15
2022-09-14T23:24:08.233Z,12.23
2022-09-14T23:26:36.705Z,12.88
2022-09-14T23:29:06.864Z,15.50
2022-09-14T23:31:36.980Z,10.38
2022-09-14T23:34:06.330Z,13.10
2022-09-14T23:36:35.381Z,12.90
2022-09-14T23:39:04.053Z,11.15
2022-09-14T23:41:32.733Z,13.05
2022-09-14T23:44:01.184Z,15.88
2022-09-14T23:46:29.655Z,15.65
2022-09-14T23:48:59.417Z,12.15
2022-09-14T23:51:27.785Z,15.18
2022-09-14T23:53:56.174Z,14.40
2022-09-14T23:56:24.612Z,14.55
2022-09-14T23:58:53.214Z,18.08
